Date,TemperatureHighF,TemperatureAvgF,TemperatureLowF,DewpointHighF,DewpointAvgF,DewpointLowF,HumidityHigh,HumidityAvg,HumidityLow,PressureMaxIn,PressureMinIn,WindSpeedMaxMPH,WindSpeedAvgMPH,GustSpeedMaxMPH,PrecipitationSumIn
2013-3-28,50,50,49,50,49,49,98,98,96,30.11,30.09,9,6,13,0.00
2013-3-29,60,51,46,53,49,46,99,94,70,30.11,30.05,11,4,20,0.00
2013-3-30,55,50,48,52,48,-100,99,96,82,30.09,30.01,20,12,25,0.00
2013-3-31,53,51,50,53,51,50,99,98,96,30.05,30.01,19,13,26,0.00
2013-4-1,58,52,50,55,51,49,99,96,83,30.18,30.05,13,5,15,0.00
2013-4-2,50,48,46,50,48,46,99,99,97,30.22,30.11,23,15,27,0.00
2013-4-3,51,47,45,51,47,45,99,99,99,30.15,30.02,21,8,25,0.00
2013-4-4,52,50,47,52,50,47,99,99,99,30.13,29.97,29,14,37,0.00
2013-4-5,56,52,50,54,51,50,99,98,89,30.22,30.13,11,6,14,0.00
2013-4-6,55,52,50,55,51,49,99,97,95,30.20,30.17,9,4,16,0.00
2013-4-7,55,52,49,53,50,46,99,93,83,30.20,29.87,26,6,41,0.00
2013-4-8,49,48,47,44,44,43,90,87,79,30.05,29.95,35,26,48,0.00
2013-4-9,50,48,46,46,44,43,93,88,82,30.15,30.04,30,20,40,0.00
2013-4-10,50,48,48,49,46,44,98,92,84,30.21,30.09,34,20,47,0.00
2013-4-11,50,47,45,48,45,42,99,92,80,30.05,29.85,36,26,52,0.00
2013-4-12,47,46,45,45,45,43,99,96,89,29.94,29.86,34,25,47,0.00
2013-4-13,47,46,45,46,43,40,98,89,80,29.91,29.79,42,26,64,0.00
2013-4-14,47,45,44,44,41,39,99,85,79,29.93,29.87,42,22,58,0.00
2013-4-15,46,44,42,44,40,38,99,86,77,29.95,29.83,40,25,58,0.00
2013-4-16,47,45,43,43,40,38,93,84,75,30.18,29.94,37,21,51,0.00
2013-4-17,48,46,44,44,42,39,93,87,77,30.31,30.18,25,16,32,0.00
2013-4-18,47,45,44,45,44,42,96,93,89,30.29,30.21,24,18,29,0.00
2013-4-19,52,46,44,48,45,43,99,94,84,30.25,30.03,39,20,55,0.00
2013-4-20,47,46,45,46,45,44,98,94,91,30.13,30.02,26,23,37,0.00
2013-4-21,49,46,44,46,44,43,98,92,80,30.05,29.95,27,21,31,0.00
2013-4-22,70,57,46,49,45,41,97,68,35,30.00,29.90,23,12,26,0.00
2013-4-23,67,53,45,47,41,18,99,71,15,29.99,29.88,18,10,23,0.00
2013-4-24,51,47,44,48,46,44,100,94,83,29.97,29.85,13,8,19,0.00
2013-4-25,54,51,49,49,48,46,93,89,82,30.15,29.97,12,4,15,0.00
2013-4-26,50,48,46,47,46,44,98,93,86,30.26,30.14,20,11,26,0.00
2013-4-27,47,46,45,47,46,45,99,99,97,30.25,30.09,25,16,32,0.00
2013-4-28,51,48,45,47,46,45,99,93,83,30.09,29.90,28,23,34,0.00
2013-4-29,53,50,47,48,46,44,91,87,80,29.93,29.77,41,23,56,0.00
2013-4-30,50,48,46,45,43,42,92,84,75,29.90,29.80,30,23,42,0.00
2013-5-1,69,56,48,47,37,16,96,56,14,30.11,29.88,21,12,27,0.00
2013-5-2,73,67,58,40,23,14,51,19,10,30.18,30.09,23,12,26,0.00
2013-5-3,66,54,47,50,44,27,96,74,25,30.10,29.84,22,13,26,0.00
2013-5-4,60,53,49,52,49,42,97,86,51,29.82,29.59,32,18,39,0.00
2013-5-5,54,51,50,51,50,49,98,95,85,29.81,29.60,33,26,51,0.00
2013-5-6,60,55,51,53,51,48,95,86,72,29.99,29.80,27,12,35,0.00
2013-5-7,59,54,50,55,52,50,98,93,83,30.05,29.98,15,7,19,0.00
2013-5-8,51,50,49,51,49,48,99,97,91,30.16,30.09,14,4,24,0.00
2013-5-9,52,50,48,49,48,46,96,92,87,30.20,30.11,20,11,27,0.00
2013-5-10,50,48,48,50,46,-100,99,99,96,30.21,30.13,28,19,35,0.00
2013-5-11,52,48,47,51,47,-100,99,99,99,30.17,30.09,26,13,30,0.00
2013-5-12,52,50,48,52,50,48,99,99,99,30.18,30.09,26,21,32,0.00
2013-5-13,53,49,47,51,48,47,99,97,84,30.11,29.93,33,25,52,0.00
2013-5-14,53,50,48,49,47,45,97,90,80,29.99,29.89,35,27,50,0.00
2013-5-15,52,49,48,50,48,45,99,94,87,30.05,29.97,28,21,45,0.00
2013-5-16,53,48,49,52,32,-100,99,98,92,30.05,29.99,26,12,39,0.00
2013-5-17,53,48,48,50,41,-100,99,97,90,30.05,29.98,20,14,29,0.00
2013-5-20,50,49,48,49,48,47,96,95,93,30.04,29.96,29,23,37,0.00
2013-5-21,50,48,46,47,45,41,98,88,81,30.00,29.88,48,30,65,0.00
2013-5-22,47,27,45,42,-16,-100,87,48,76,30.03,29.89,48,17,60,0.00
2013-5-23,49,36,46,46,7,-100,94,65,83,30.03,29.90,0,0,0,0.00
2013-5-24,49,47,46,46,45,44,97,92,81,30.01,29.92,0,0,0,0.00
2013-5-25,50,48,46,49,46,44,98,93,86,30.05,29.95,0,0,0,0.00
2013-5-26,56,51,48,54,51,48,99,97,87,30.16,30.04,0,0,0,0.00
2013-5-27,55,52,50,55,52,49,99,98,96,30.15,30.02,0,0,0,0.00
2013-5-28,54,52,50,54,52,50,99,99,99,30.03,29.96,0,0,0,0.00
2013-5-29,52,50,49,51,50,47,99,96,88,30.01,29.90,0,0,0,0.00
2013-5-30,51,49,48,48,47,45,98,91,79,30.01,29.91,0,0,0,0.00
2013-5-31,51,49,48,47,46,45,94,90,84,30.05,29.94,0,0,0,0.00
2013-6-1,54,50,48,49,46,45,97,89,72,29.95,29.79,0,0,0,0.00
2013-6-2,50,48,47,49,48,47,99,98,94,29.81,29.69,0,0,0,0.00
2013-6-3,55,50,48,51,49,47,99,95,82,29.90,29.70,0,0,0,0.00
2013-6-4,54,51,50,53,50,49,99,96,92,30.00,29.88,0,0,0,0.00
2013-6-5,54,51,49,52,50,48,98,95,88,30.03,29.97,0,0,0,0.00
2013-6-6,56,51,49,53,50,48,99,96,83,29.99,29.89,0,0,0,0.00
2013-6-7,55,51,48,53,50,47,99,95,76,29.92,29.74,0,0,0,0.00
2013-6-8,54,51,50,52,50,48,99,96,81,29.82,29.71,0,0,0,0.00
2013-6-9,56,53,51,56,53,51,99,99,96,29.93,29.82,0,0,0,0.00
2013-6-10,57,54,52,56,53,50,99,97,86,29.98,29.85,0,0,0,0.00
2013-6-11,56,52,50,52,50,48,99,93,85,30.02,29.90,0,0,0,0.00
2013-6-12,52,50,49,48,47,47,94,90,84,30.01,29.90,0,0,0,0.00
2013-6-13,51,49,48,48,47,46,95,92,85,30.13,29.98,0,0,0,0.00
2013-6-14,50,49,47,49,47,46,97,95,92,30.02,29.85,0,0,0,0.00
2013-6-15,49,48,47,49,48,47,99,99,97,30.01,29.83,0,0,0,0.00
2013-6-16,51,49,47,51,48,47,99,99,96,30.12,30.00,0,0,0,0.00
2013-6-17,53,51,48,53,51,48,99,99,98,30.12,30.04,0,0,0,0.00
2013-6-18,55,51,50,54,51,50,99,98,90,30.05,30.00,0,0,0,0.00
2013-6-19,54,51,50,51,50,48,99,95,87,30.05,29.99,0,0,0,0.00
2013-6-20,53,50,49,49,49,48,98,95,83,30.02,29.96,0,0,0,0.00
2013-6-22,54,52,49,52,50,48,99,95,89,29.96,29.84,0,0,0,0.00
2013-6-23,56,54,51,56,54,51,99,99,99,29.90,29.85,0,0,0,0.00
2013-6-24,53,52,51,53,52,51,99,99,99,29.91,29.82,0,0,0,0.00
2013-6-25,51,50,49,51,50,49,99,99,99,29.90,29.88,0,0,0,0.00
2013-6-26,50,49,48,50,49,48,99,99,99,30.05,30.04,0,0,0,0.00
2013-6-27,49,46,44,49,46,44,99,99,99,30.12,30.04,0,0,0,0.00
2013-6-28,59,55,48,58,54,48,99,96,84,30.05,29.93,0,0,0,0.00
2013-6-29,60,57,55,55,54,52,94,87,77,29.95,29.83,0,0,0,0.00
2013-6-30,56,54,53,55,54,53,99,97,93,29.87,29.79,0,0,0,0.00
2013-7-1,54,52,50,54,52,50,99,99,96,29.89,29.80,0,0,0,0.00
2013-7-2,58,54,52,58,54,52,99,98,90,29.96,29.84,0,0,0,0.00
2013-7-3,60,56,53,58,55,53,99,96,86,29.94,29.81,0,0,0,0.00
2013-7-4,62,56,52,57,52,48,98,87,70,29.83,29.69,0,0,0,0.00
2013-7-5,53,51,50,51,50,49,99,95,90,29.78,29.70,0,0,0,0.00
2013-7-6,52,50,49,52,49,49,99,98,93,29.83,29.74,0,0,0,0.00
2013-7-7,56,52,49,54,51,49,99,97,88,29.89,29.80,0,0,0,0.00
2013-7-8,56,52,50,55,50,-100,99,98,91,30.00,29.89,0,0,0,0.00
2013-7-9,51,50,47,51,50,47,99,99,99,30.05,29.96,0,0,0,0.00
2013-7-10,55,50,49,54,48,-100,99,96,90,30.02,29.96,0,0,0,0.00
2013-7-11,52,50,49,52,50,49,99,97,92,29.98,29.92,0,0,0,0.00
2013-7-12,54,52,50,52,50,49,98,94,89,29.98,29.91,0,0,0,0.00
2013-7-13,56,51,50,52,50,49,97,95,87,30.00,29.92,0,0,0,0.00
2013-7-15,56,54,51,53,52,51,99,91,87,29.95,29.89,0,0,0,0.00